sensor_id;sensor_type;location;lat;lon;timestamp;P1;durP1;ratioP1;P2;durP2;ratioP2
295;SDS011;132;48.770;9.200;2023-02-26T00:01:38;4.72;;;3.20;;
295;SDS011;132;48.770;9.200;2023-02-26T00:04:05;5.78;;;3.30;;
295;SDS011;132;48.770;9.200;2023-02-26T00:06:33;5.32;;;2.97;;
295;SDS011;132;48.770;9.200;2023-02-26T00:09:03;5.30;;;3.30;;
295;SDS011;132;48.770;9.200;2023-02-26T00:11:31;4.78;;;2.92;;
295;SDS011;132;48.770;9.200;2023-02-26T00:13:58;7.40;;;2.88;;
295;SDS011;132;48.770;9.200;2023-02-26T00:16:28;5.78;;;2.90;;
295;SDS011;132;48.770;9.200;2023-02-26T00:18:57;12.32;;;3.40;;
295;SDS011;132;48.770;9.200;2023-02-26T00:21:25;6.53;;;3.17;;
295;SDS011;132;48.770;9.200;2023-02-26T00:23:53;4.50;;;2.97;;
295;SDS011;132;48.770;9.200;2023-02-26T00:26:20;5.72;;;3.10;;
295;SDS011;132;48.770;9.200;2023-02-26T00:28:48;8.25;;;3.60;;
295;SDS011;132;48.770;9.200;2023-02-26T00:31:15;7.75;;;3.25;;
295;SDS011;132;48.770;9.200;2023-02-26T00:33:43;6.55;;;3.63;;
295;SDS011;132;48.770;9.200;2023-02-26T00:39:33;6.25;;;3.28;;
295;SDS011;132;48.770;9.200;2023-02-26T00:42:05;6.95;;;3.30;;
295;SDS011;132;48.770;9.200;2023-02-26T00:44:32;6.28;;;3.40;;
295;SDS011;132;48.770;9.200;2023-02-26T00:46:59;6.10;;;3.30;;
295;SDS011;132;48.770;9.200;2023-02-26T00:49:42;5.88;;;3.30;;
295;SDS011;132;48.770;9.200;2023-02-26T00:52:49;6.13;;;3.45;;
295;SDS011;132;48.770;9.200;2023-02-26T00:55:31;6.93;;;3.50;;
295;SDS011;132;48.770;9.200;2023-02-26T00:57:57;6.78;;;3.22;;
295;SDS011;132;48.770;9.200;2023-02-26T01:00:24;7.43;;;3.53;;
295;SDS011;132;48.770;9.200;2023-02-26T01:02:50;5.57;;;3.30;;
295;SDS011;132;48.770;9.200;2023-02-26T01:05:18;6.30;;;3.17;;
295;SDS011;132;48.770;9.200;2023-02-26T01:10:29;6.82;;;3.50;;
295;SDS011;132;48.770;9.200;2023-02-26T01:12:56;6.38;;;3.35;;
295;SDS011;132;48.770;9.200;2023-02-26T01:15:23;5.15;;;3.20;;
295;SDS011;132;48.770;9.200;2023-02-26T01:20:21;7.40;;;3.40;;
295;SDS011;132;48.770;9.200;2023-02-26T01:22:56;7.07;;;3.45;;
295;SDS011;132;48.770;9.200;2023-02-26T01:28:20;8.32;;;3.80;;
295;SDS011;132;48.770;9.200;2023-02-26T01:30:47;5.43;;;3.53;;
295;SDS011;132;48.770;9.200;2023-02-26T01:35:47;4.05;;;2.88;;
295;SDS011;132;48.770;9.200;2023-02-26T01:43:45;6.72;;;3.50;;
295;SDS011;132;48.770;9.200;2023-02-26T01:46:35;8.18;;;3.53;;
295;SDS011;132;48.770;9.200;2023-02-26T01:49:13;8.23;;;3.38;;
295;SDS011;132;48.770;9.200;2023-02-26T01:51:47;5.97;;;3.60;;
295;SDS011;132;48.770;9.200;2023-02-26T01:54:19;7.65;;;3.30;;
295;SDS011;132;48.770;9.200;2023-02-26T01:56:54;5.60;;;3.53;;
295;SDS011;132;48.770;9.200;2023-02-26T01:59:24;5.25;;;3.30;;
295;SDS011;132;48.770;9.200;2023-02-26T02:01:51;6.45;;;3.63;;
295;SDS011;132;48.770;9.200;2023-02-26T02:04:20;8.32;;;3.22;;
295;SDS011;132;48.770;9.200;2023-02-26T02:06:48;7.50;;;3.40;;
295;SDS011;132;48.770;9.200;2023-02-26T02:09:15;6.45;;;3.50;;
295;SDS011;132;48.770;9.200;2023-02-26T02:11:49;8.93;;;3.63;;
295;SDS011;132;48.770;9.200;2023-02-26T02:14:24;5.43;;;3.50;;
295;SDS011;132;48.770;9.200;2023-02-26T02:17:07;8.82;;;3.47;;
295;SDS011;132;48.770;9.200;2023-02-26T02:20:09;5.07;;;3.10;;
295;SDS011;132;48.770;9.200;2023-02-26T02:22:55;5.28;;;3.30;;
295;SDS011;132;48.770;9.200;2023-02-26T02:31:20;7.93;;;3.15;;
295;SDS011;132;48.770;9.200;2023-02-26T02:39:15;9.18;;;3.33;;
295;SDS011;132;48.770;9.200;2023-02-26T02:42:06;7.75;;;3.20;;
295;SDS011;132;48.770;9.200;2023-02-26T02:44:57;4.70;;;3.25;;
295;SDS011;132;48.770;9.200;2023-02-26T02:47:28;7.28;;;3.10;;
295;SDS011;132;48.770;9.200;2023-02-26T02:52:43;6.85;;;3.30;;
295;SDS011;132;48.770;9.200;2023-02-26T02:55:19;6.47;;;3.10;;
295;SDS011;132;48.770;9.200;2023-02-26T02:57:51;5.57;;;3.50;;
295;SDS011;132;48.770;9.200;2023-02-26T03:00:24;6.15;;;2.90;;
295;SDS011;132;48.770;9.200;2023-02-26T03:02:55;6.50;;;3.03;;
295;SDS011;132;48.770;9.200;2023-02-26T03:05:26;5.95;;;3.30;;
295;SDS011;132;48.770;9.200;2023-02-26T03:07:54;6.70;;;3.35;;
295;SDS011;132;48.770;9.200;2023-02-26T03:10:23;7.13;;;3.13;;
295;SDS011;132;48.770;9.200;2023-02-26T03:12:50;5.43;;;3.30;;
295;SDS011;132;48.770;9.200;2023-02-26T03:15:17;6.90;;;3.50;;
295;SDS011;132;48.770;9.200;2023-02-26T03:20:34;6.35;;;3.47;;
295;SDS011;132;48.770;9.200;2023-02-26T03:25:59;6.32;;;4.00;;
295;SDS011;132;48.770;9.200;2023-02-26T03:31:11;5.80;;;3.10;;
295;SDS011;132;48.770;9.200;2023-02-26T03:34:00;6.15;;;3.20;;
295;SDS011;132;48.770;9.200;2023-02-26T03:36:54;8.35;;;3.28;;
295;SDS011;132;48.770;9.200;2023-02-26T03:39:31;10.18;;;3.00;;
295;SDS011;132;48.770;9.200;2023-02-26T03:42:21;14.57;;;3.42;;
295;SDS011;132;48.770;9.200;2023-02-26T03:44:59;8.32;;;3.65;;
295;SDS011;132;48.770;9.200;2023-02-26T03:47:31;8.40;;;3.63;;
295;SDS011;132;48.770;9.200;2023-02-26T03:50:07;6.10;;;3.55;;
295;SDS011;132;48.770;9.200;2023-02-26T03:52:48;8.10;;;3.50;;
295;SDS011;132;48.770;9.200;2023-02-26T03:55:31;8.77;;;3.35;;
295;SDS011;132;48.770;9.200;2023-02-26T03:58:20;5.22;;;3.13;;
295;SDS011;132;48.770;9.200;2023-02-26T04:01:12;7.47;;;3.45;;
295;SDS011;132;48.770;9.200;2023-02-26T04:03:57;6.07;;;3.47;;
295;SDS011;132;48.770;9.200;2023-02-26T04:06:29;6.07;;;3.60;;
295;SDS011;132;48.770;9.200;2023-02-26T04:08:56;9.80;;;3.30;;
295;SDS011;132;48.770;9.200;2023-02-26T04:11:22;8.65;;;3.60;;
295;SDS011;132;48.770;9.200;2023-02-26T04:13:50;8.82;;;3.78;;
295;SDS011;132;48.770;9.200;2023-02-26T04:16:18;7.15;;;3.30;;
295;SDS011;132;48.770;9.200;2023-02-26T04:18:44;6.85;;;3.58;;
295;SDS011;132;48.770;9.200;2023-02-26T04:21:12;6.55;;;3.22;;
295;SDS011;132;48.770;9.200;2023-02-26T04:23:40;7.25;;;3.40;;
295;SDS011;132;48.770;9.200;2023-02-26T04:26:06;7.00;;;3.28;;
295;SDS011;132;48.770;9.200;2023-02-26T04:28:35;8.55;;;3.90;;
295;SDS011;132;48.770;9.200;2023-02-26T04:31:03;7.00;;;3.53;;
295;SDS011;132;48.770;9.200;2023-02-26T04:33:31;7.88;;;3.75;;
295;SDS011;132;48.770;9.200;2023-02-26T04:35:58;6.63;;;3.17;;
295;SDS011;132;48.770;9.200;2023-02-26T04:38:26;5.82;;;3.33;;
295;SDS011;132;48.770;9.200;2023-02-26T04:40:53;9.13;;;3.97;;
295;SDS011;132;48.770;9.200;2023-02-26T04:43:20;6.18;;;3.53;;
295;SDS011;132;48.770;9.200;2023-02-26T04:45:57;7.78;;;3.65;;
295;SDS011;132;48.770;9.200;2023-02-26T04:48:24;5.90;;;3.45;;
295;SDS011;132;48.770;9.200;2023-02-26T04:50:50;8.00;;;3.75;;
295;SDS011;132;48.770;9.200;2023-02-26T04:53:17;6.90;;;3.60;;
295;SDS011;132;48.770;9.200;2023-02-26T04:55:43;6.93;;;3.85;;
295;SDS011;132;48.770;9.200;2023-02-26T04:58:13;6.47;;;3.45;;
295;SDS011;132;48.770;9.200;2023-02-26T05:00:39;9.23;;;3.30;;
295;SDS011;132;48.770;9.200;2023-02-26T05:03:06;10.02;;;4.10;;
295;SDS011;132;48.770;9.200;2023-02-26T05:05:34;7.53;;;3.80;;
295;SDS011;132;48.770;9.200;2023-02-26T05:08:01;7.60;;;4.50;;
295;SDS011;132;48.770;9.200;2023-02-26T05:10:27;6.22;;;3.95;;
295;SDS011;132;48.770;9.200;2023-02-26T05:12:54;7.47;;;3.80;;
295;SDS011;132;48.770;9.200;2023-02-26T05:15:20;13.55;;;3.90;;
295;SDS011;132;48.770;9.200;2023-02-26T05:17:48;10.27;;;4.45;;
295;SDS011;132;48.770;9.200;2023-02-26T05:20:14;6.63;;;3.75;;
295;SDS011;132;48.770;9.200;2023-02-26T05:22:41;8.73;;;3.70;;
295;SDS011;132;48.770;9.200;2023-02-26T05:25:08;8.40;;;3.50;;
295;SDS011;132;48.770;9.200;2023-02-26T05:27:38;11.07;;;3.58;;
295;SDS011;132;48.770;9.200;2023-02-26T05:30:05;5.97;;;3.35;;
295;SDS011;132;48.770;9.200;2023-02-26T05:32:35;8.48;;;3.92;;
295;SDS011;132;48.770;9.200;2023-02-26T05:35:01;8.52;;;3.70;;
295;SDS011;132;48.770;9.200;2023-02-26T05:37:28;7.70;;;3.50;;
295;SDS011;132;48.770;9.200;2023-02-26T05:39:54;6.20;;;3.50;;
295;SDS011;132;48.770;9.200;2023-02-26T05:42:21;7.55;;;3.55;;
295;SDS011;132;48.770;9.200;2023-02-26T05:44:47;7.38;;;3.55;;
295;SDS011;132;48.770;9.200;2023-02-26T05:47:13;9.18;;;3.75;;
295;SDS011;132;48.770;9.200;2023-02-26T05:49:40;4.80;;;3.45;;
295;SDS011;132;48.770;9.200;2023-02-26T05:52:06;7.88;;;3.40;;
295;SDS011;132;48.770;9.200;2023-02-26T05:54:32;7.30;;;3.90;;
295;SDS011;132;48.770;9.200;2023-02-26T05:56:59;6.25;;;3.53;;
295;SDS011;132;48.770;9.200;2023-02-26T05:59:25;6.65;;;3.65;;
295;SDS011;132;48.770;9.200;2023-02-26T06:01:52;7.00;;;3.70;;
295;SDS011;132;48.770;9.200;2023-02-26T06:04:18;7.53;;;3.70;;
295;SDS011;132;48.770;9.200;2023-02-26T06:06:45;5.95;;;3.92;;
295;SDS011;132;48.770;9.200;2023-02-26T06:09:11;5.05;;;3.30;;
295;SDS011;132;48.770;9.200;2023-02-26T06:11:37;8.82;;;3.50;;
295;SDS011;132;48.770;9.200;2023-02-26T06:14:05;6.18;;;3.72;;
295;SDS011;132;48.770;9.200;2023-02-26T06:16:31;5.85;;;3.20;;
295;SDS011;132;48.770;9.200;2023-02-26T06:19:00;5.65;;;3.70;;
295;SDS011;132;48.770;9.200;2023-02-26T06:21:27;13.50;;;4.13;;
295;SDS011;132;48.770;9.200;2023-02-26T06:23:54;7.47;;;3.50;;
295;SDS011;132;48.770;9.200;2023-02-26T06:26:20;9.38;;;3.78;;
295;SDS011;132;48.770;9.200;2023-02-26T06:28:47;8.48;;;3.90;;
295;SDS011;132;48.770;9.200;2023-02-26T06:31:13;8.05;;;3.83;;
295;SDS011;132;48.770;9.200;2023-02-26T06:33:39;7.30;;;3.50;;
295;SDS011;132;48.770;9.200;2023-02-26T06:36:06;5.60;;;3.35;;
295;SDS011;132;48.770;9.200;2023-02-26T06:38:33;9.13;;;3.65;;
295;SDS011;132;48.770;9.200;2023-02-26T06:40:59;9.52;;;4.45;;
295;SDS011;132;48.770;9.200;2023-02-26T06:43:26;10.45;;;4.30;;
295;SDS011;132;48.770;9.200;2023-02-26T06:45:55;9.73;;;5.00;;
295;SDS011;132;48.770;9.200;2023-02-26T06:48:25;10.73;;;6.03;;
295;SDS011;132;48.770;9.200;2023-02-26T06:50:51;17.60;;;7.82;;
295;SDS011;132;48.770;9.200;2023-02-26T06:53:18;10.90;;;5.53;;
295;SDS011;132;48.770;9.200;2023-02-26T06:55:45;9.32;;;3.88;;
295;SDS011;132;48.770;9.200;2023-02-26T06:58:12;6.75;;;4.00;;
295;SDS011;132;48.770;9.200;2023-02-26T07:00:38;10.55;;;4.10;;
295;SDS011;132;48.770;9.200;2023-02-26T07:03:07;9.90;;;4.55;;
295;SDS011;132;48.770;9.200;2023-02-26T07:05:39;7.78;;;4.90;;
295;SDS011;132;48.770;9.200;2023-02-26T07:08:06;11.63;;;5.72;;
295;SDS011;132;48.770;9.200;2023-02-26T07:10:33;21.20;;;11.00;;
295;SDS011;132;48.770;9.200;2023-02-26T07:13:00;11.38;;;5.65;;
295;SDS011;132;48.770;9.200;2023-02-26T07:15:27;14.30;;;4.35;;
295;SDS011;132;48.770;9.200;2023-02-26T07:17:54;11.70;;;4.35;;
295;SDS011;132;48.770;9.200;2023-02-26T07:20:20;9.00;;;3.88;;
295;SDS011;132;48.770;9.200;2023-02-26T07:22:47;15.18;;;4.57;;
295;SDS011;132;48.770;9.200;2023-02-26T07:25:14;9.68;;;4.25;;
295;SDS011;132;48.770;9.200;2023-02-26T07:27:40;7.70;;;3.60;;
295;SDS011;132;48.770;9.200;2023-02-26T07:30:07;7.18;;;3.30;;
295;SDS011;132;48.770;9.200;2023-02-26T07:32:34;5.38;;;3.65;;
295;SDS011;132;48.770;9.200;2023-02-26T07:35:00;6.05;;;3.85;;
295;SDS011;132;48.770;9.200;2023-02-26T07:37:27;9.32;;;4.40;;
295;SDS011;132;48.770;9.200;2023-02-26T07:39:54;7.45;;;3.63;;
295;SDS011;132;48.770;9.200;2023-02-26T07:42:32;5.75;;;3.60;;
295;SDS011;132;48.770;9.200;2023-02-26T07:45:09;11.48;;;3.72;;
295;SDS011;132;48.770;9.200;2023-02-26T07:47:37;8.85;;;3.55;;
295;SDS011;132;48.770;9.200;2023-02-26T07:50:05;7.50;;;3.40;;
295;SDS011;132;48.770;9.200;2023-02-26T07:52:32;8.95;;;3.30;;
295;SDS011;132;48.770;9.200;2023-02-26T07:54:58;9.93;;;3.63;;
295;SDS011;132;48.770;9.200;2023-02-26T07:57:25;9.73;;;3.47;;
295;SDS011;132;48.770;9.200;2023-02-26T07:59:51;5.75;;;3.05;;
295;SDS011;132;48.770;9.200;2023-02-26T08:02:17;5.75;;;3.50;;
295;SDS011;132;48.770;9.200;2023-02-26T08:04:44;6.28;;;3.53;;
295;SDS011;132;48.770;9.200;2023-02-26T08:07:10;8.75;;;3.72;;
295;SDS011;132;48.770;9.200;2023-02-26T08:09:37;8.05;;;3.95;;
295;SDS011;132;48.770;9.200;2023-02-26T08:12:03;5.40;;;3.63;;
295;SDS011;132;48.770;9.200;2023-02-26T08:14:30;7.63;;;3.95;;
295;SDS011;132;48.770;9.200;2023-02-26T08:16:56;7.57;;;3.83;;
295;SDS011;132;48.770;9.200;2023-02-26T08:19:22;6.72;;;3.60;;
295;SDS011;132;48.770;9.200;2023-02-26T08:21:49;5.78;;;3.40;;
295;SDS011;132;48.770;9.200;2023-02-26T08:24:15;5.97;;;3.15;;
295;SDS011;132;48.770;9.200;2023-02-26T08:26:42;7.45;;;3.53;;
295;SDS011;132;48.770;9.200;2023-02-26T08:29:08;5.72;;;3.40;;
295;SDS011;132;48.770;9.200;2023-02-26T08:31:35;4.30;;;3.20;;
295;SDS011;132;48.770;9.200;2023-02-26T08:34:01;9.07;;;3.30;;
295;SDS011;132;48.770;9.200;2023-02-26T08:36:29;6.65;;;3.53;;
295;SDS011;132;48.770;9.200;2023-02-26T08:38:56;5.20;;;3.08;;
295;SDS011;132;48.770;9.200;2023-02-26T08:41:23;8.50;;;3.30;;
295;SDS011;132;48.770;9.200;2023-02-26T08:43:52;6.15;;;2.97;;
295;SDS011;132;48.770;9.200;2023-02-26T08:46:19;5.97;;;3.10;;
295;SDS011;132;48.770;9.200;2023-02-26T08:48:45;8.00;;;3.30;;
295;SDS011;132;48.770;9.200;2023-02-26T08:51:12;5.10;;;3.10;;
295;SDS011;132;48.770;9.200;2023-02-26T08:53:38;5.35;;;3.13;;
295;SDS011;132;48.770;9.200;2023-02-26T08:56:05;6.68;;;3.47;;
295;SDS011;132;48.770;9.200;2023-02-26T08:58:31;5.88;;;3.20;;
295;SDS011;132;48.770;9.200;2023-02-26T09:00:58;6.75;;;3.00;;
295;SDS011;132;48.770;9.200;2023-02-26T09:03:24;7.53;;;3.28;;
295;SDS011;132;48.770;9.200;2023-02-26T09:05:51;12.38;;;3.75;;
295;SDS011;132;48.770;9.200;2023-02-26T09:08:17;6.40;;;3.38;;
295;SDS011;132;48.770;9.200;2023-02-26T09:10:45;7.35;;;3.25;;
295;SDS011;132;48.770;9.200;2023-02-26T09:13:12;6.85;;;3.30;;
295;SDS011;132;48.770;9.200;2023-02-26T09:15:39;11.48;;;3.50;;
295;SDS011;132;48.770;9.200;2023-02-26T09:18:06;5.38;;;3.20;;
295;SDS011;132;48.770;9.200;2023-02-26T09:20:36;5.20;;;3.15;;
295;SDS011;132;48.770;9.200;2023-02-26T09:23:02;7.47;;;3.17;;
295;SDS011;132;48.770;9.200;2023-02-26T09:25:28;12.27;;;3.25;;
295;SDS011;132;48.770;9.200;2023-02-26T09:27:55;3.75;;;2.60;;
295;SDS011;132;48.770;9.200;2023-02-26T09:30:21;3.33;;;2.63;;
295;SDS011;132;48.770;9.200;2023-02-26T09:32:47;4.57;;;2.50;;
295;SDS011;132;48.770;9.200;2023-02-26T09:35:14;4.00;;;2.40;;
295;SDS011;132;48.770;9.200;2023-02-26T09:37:40;3.25;;;2.25;;
295;SDS011;132;48.770;9.200;2023-02-26T09:40:07;5.03;;;2.90;;
295;SDS011;132;48.770;9.200;2023-02-26T09:42:56;6.82;;;2.67;;
295;SDS011;132;48.770;9.200;2023-02-26T09:45:48;4.25;;;2.50;;
295;SDS011;132;48.770;9.200;2023-02-26T09:48:17;3.22;;;2.45;;
295;SDS011;132;48.770;9.200;2023-02-26T09:50:47;4.47;;;2.60;;
295;SDS011;132;48.770;9.200;2023-02-26T09:53:18;5.40;;;2.63;;
295;SDS011;132;48.770;9.200;2023-02-26T09:56:03;7.13;;;2.92;;
295;SDS011;132;48.770;9.200;2023-02-26T09:58:33;5.93;;;2.90;;
295;SDS011;132;48.770;9.200;2023-02-26T10:12:02;7.25;;;2.50;;
295;SDS011;132;48.770;9.200;2023-02-26T10:14:54;5.88;;;2.95;;
295;SDS011;132;48.770;9.200;2023-02-26T10:17:46;3.40;;;2.38;;
295;SDS011;132;48.770;9.200;2023-02-26T10:20:22;7.63;;;2.65;;
295;SDS011;132;48.770;9.200;2023-02-26T10:23:16;5.68;;;2.65;;
295;SDS011;132;48.770;9.200;2023-02-26T10:26:03;5.38;;;2.72;;
295;SDS011;132;48.770;9.200;2023-02-26T10:28:53;4.40;;;2.70;;
295;SDS011;132;48.770;9.200;2023-02-26T10:37:07;6.97;;;3.00;;
295;SDS011;132;48.770;9.200;2023-02-26T10:42:19;5.80;;;2.92;;
295;SDS011;132;48.770;9.200;2023-02-26T10:50:58;5.05;;;3.10;;
295;SDS011;132;48.770;9.200;2023-02-26T10:53:26;5.20;;;2.95;;
295;SDS011;132;48.770;9.200;2023-02-26T10:56:04;5.82;;;2.75;;
295;SDS011;132;48.770;9.200;2023-02-26T10:58:32;3.20;;;2.60;;
295;SDS011;132;48.770;9.200;2023-02-26T11:00:59;3.95;;;2.60;;
295;SDS011;132;48.770;9.200;2023-02-26T11:03:33;6.40;;;3.05;;
295;SDS011;132;48.770;9.200;2023-02-26T11:06:03;7.82;;;3.10;;
295;SDS011;132;48.770;9.200;2023-02-26T11:08:32;3.92;;;2.70;;
295;SDS011;132;48.770;9.200;2023-02-26T11:11:01;5.53;;;3.00;;
295;SDS011;132;48.770;9.200;2023-02-26T11:13:31;4.60;;;3.03;;
295;SDS011;132;48.770;9.200;2023-02-26T11:16:09;4.68;;;2.95;;
295;SDS011;132;48.770;9.200;2023-02-26T11:18:39;4.35;;;2.80;;
295;SDS011;132;48.770;9.200;2023-02-26T11:21:16;3.10;;;2.60;;
295;SDS011;132;48.770;9.200;2023-02-26T11:26:57;3.65;;;2.78;;
295;SDS011;132;48.770;9.200;2023-02-26T11:29:34;3.30;;;2.63;;
295;SDS011;132;48.770;9.200;2023-02-26T11:32:06;3.30;;;2.40;;
295;SDS011;132;48.770;9.200;2023-02-26T11:34:45;3.55;;;2.40;;
295;SDS011;132;48.770;9.200;2023-02-26T11:37:16;4.72;;;2.67;;
295;SDS011;132;48.770;9.200;2023-02-26T11:39:58;6.30;;;3.33;;
295;SDS011;132;48.770;9.200;2023-02-26T11:42:33;4.03;;;2.50;;
295;SDS011;132;48.770;9.200;2023-02-26T11:45:03;3.70;;;2.78;;
295;SDS011;132;48.770;9.200;2023-02-26T11:47:31;3.75;;;2.70;;
295;SDS011;132;48.770;9.200;2023-02-26T11:50:00;3.20;;;2.50;;
295;SDS011;132;48.770;9.200;2023-02-26T11:55:00;3.42;;;2.63;;
295;SDS011;132;48.770;9.200;2023-02-26T11:57:29;4.00;;;2.55;;
295;SDS011;132;48.770;9.200;2023-02-26T11:59:58;2.88;;;2.40;;
295;SDS011;132;48.770;9.200;2023-02-26T12:02:26;2.80;;;2.67;;
295;SDS011;132;48.770;9.200;2023-02-26T12:05:00;3.45;;;2.60;;
295;SDS011;132;48.770;9.200;2023-02-26T12:07:30;4.05;;;2.72;;
295;SDS011;132;48.770;9.200;2023-02-26T12:09:57;5.03;;;2.95;;
295;SDS011;132;48.770;9.200;2023-02-26T12:15:17;7.15;;;3.00;;
295;SDS011;132;48.770;9.200;2023-02-26T12:27:40;3.35;;;2.83;;
295;SDS011;132;48.770;9.200;2023-02-26T12:29:53;5.70;;;2.67;;
295;SDS011;132;48.770;9.200;2023-02-26T12:35:35;4.03;;;2.67;;
295;SDS011;132;48.770;9.200;2023-02-26T12:43:35;3.22;;;2.42;;
295;SDS011;132;48.770;9.200;2023-02-26T12:54:40;3.80;;;2.60;;
295;SDS011;132;48.770;9.200;2023-02-26T12:58:05;6.35;;;3.10;;
295;SDS011;132;48.770;9.200;2023-02-26T13:20:21;3.40;;;2.50;;
295;SDS011;132;48.770;9.200;2023-02-26T13:23:04;3.72;;;2.30;;
295;SDS011;132;48.770;9.200;2023-02-26T13:28:19;4.30;;;2.28;;
295;SDS011;132;48.770;9.200;2023-02-26T13:30:55;3.33;;;2.47;;
295;SDS011;132;48.770;9.200;2023-02-26T13:33:34;3.35;;;2.40;;
295;SDS011;132;48.770;9.200;2023-02-26T13:36:01;2.78;;;2.20;;
295;SDS011;132;48.770;9.200;2023-02-26T13:46:54;3.60;;;2.35;;
295;SDS011;132;48.770;9.200;2023-02-26T13:52:22;2.40;;;2.22;;
295;SDS011;132;48.770;9.200;2023-02-26T13:54:54;7.00;;;2.40;;
295;SDS011;132;48.770;9.200;2023-02-26T13:57:26;2.60;;;2.30;;
295;SDS011;132;48.770;9.200;2023-02-26T14:03:11;3.33;;;1.85;;
295;SDS011;132;48.770;9.200;2023-02-26T14:13:21;3.17;;;2.20;;
295;SDS011;132;48.770;9.200;2023-02-26T14:16:11;3.28;;;2.20;;
295;SDS011;132;48.770;9.200;2023-02-26T14:23:59;3.05;;;2.30;;
295;SDS011;132;48.770;9.200;2023-02-26T14:26:48;5.25;;;2.78;;
295;SDS011;132;48.770;9.200;2023-02-26T14:29:21;3.45;;;2.33;;
295;SDS011;132;48.770;9.200;2023-02-26T14:32:04;4.60;;;2.90;;
295;SDS011;132;48.770;9.200;2023-02-26T14:34:48;2.33;;;2.20;;
295;SDS011;132;48.770;9.200;2023-02-26T14:37:22;4.15;;;2.30;;
295;SDS011;132;48.770;9.200;2023-02-26T14:42:51;2.40;;;2.00;;
295;SDS011;132;48.770;9.200;2023-02-26T14:45:37;4.18;;;2.30;;
295;SDS011;132;48.770;9.200;2023-02-26T14:48:07;2.13;;;1.80;;
295;SDS011;132;48.770;9.200;2023-02-26T15:01:48;2.50;;;1.90;;
295;SDS011;132;48.770;9.200;2023-02-26T15:04:25;2.65;;;2.10;;
295;SDS011;132;48.770;9.200;2023-02-26T15:12:41;3.22;;;2.05;;
295;SDS011;132;48.770;9.200;2023-02-26T15:18:04;2.13;;;1.95;;
295;SDS011;132;48.770;9.200;2023-02-26T15:20:49;4.93;;;2.03;;
295;SDS011;132;48.770;9.200;2023-02-26T15:26:06;2.58;;;1.80;;
295;SDS011;132;48.770;9.200;2023-02-26T15:31:09;2.97;;;2.10;;
295;SDS011;132;48.770;9.200;2023-02-26T15:33:36;2.63;;;1.90;;
295;SDS011;132;48.770;9.200;2023-02-26T15:36:05;3.08;;;2.30;;
295;SDS011;132;48.770;9.200;2023-02-26T15:41:21;3.65;;;2.20;;
295;SDS011;132;48.770;9.200;2023-02-26T15:43:53;2.30;;;2.00;;
295;SDS011;132;48.770;9.200;2023-02-26T15:46:30;2.45;;;2.22;;
295;SDS011;132;48.770;9.200;2023-02-26T15:49:05;2.60;;;2.08;;
295;SDS011;132;48.770;9.200;2023-02-26T15:51:35;3.00;;;1.90;;
295;SDS011;132;48.770;9.200;2023-02-26T15:56:59;5.28;;;2.50;;
295;SDS011;132;48.770;9.200;2023-02-26T15:59:27;3.53;;;2.17;;
295;SDS011;132;48.770;9.200;2023-02-26T16:01:56;2.88;;;2.25;;
295;SDS011;132;48.770;9.200;2023-02-26T16:04:23;7.47;;;2.25;;
295;SDS011;132;48.770;9.200;2023-02-26T16:06:54;3.05;;;2.00;;
295;SDS011;132;48.770;9.200;2023-02-26T16:09:35;10.18;;;2.05;;
295;SDS011;132;48.770;9.200;2023-02-26T16:12:09;2.60;;;2.30;;
295;SDS011;132;48.770;9.200;2023-02-26T16:15:00;3.28;;;2.10;;
295;SDS011;132;48.770;9.200;2023-02-26T16:17:52;5.45;;;2.00;;
295;SDS011;132;48.770;9.200;2023-02-26T16:20:21;2.60;;;2.10;;
295;SDS011;132;48.770;9.200;2023-02-26T16:23:04;2.10;;;1.80;;
295;SDS011;132;48.770;9.200;2023-02-26T16:25:36;2.83;;;2.17;;
295;SDS011;132;48.770;9.200;2023-02-26T16:28:11;4.13;;;2.67;;
295;SDS011;132;48.770;9.200;2023-02-26T16:30:41;2.30;;;2.05;;
295;SDS011;132;48.770;9.200;2023-02-26T16:33:12;3.92;;;1.88;;
295;SDS011;132;48.770;9.200;2023-02-26T16:35:43;5.38;;;2.03;;
295;SDS011;132;48.770;9.200;2023-02-26T16:38:31;6.43;;;2.42;;
295;SDS011;132;48.770;9.200;2023-02-26T16:41:08;2.03;;;1.90;;
295;SDS011;132;48.770;9.200;2023-02-26T16:46:19;2.78;;;1.83;;
295;SDS011;132;48.770;9.200;2023-02-26T16:49:14;2.78;;;1.92;;
295;SDS011;132;48.770;9.200;2023-02-26T16:51:48;2.20;;;1.80;;
295;SDS011;132;48.770;9.200;2023-02-26T16:56:55;2.85;;;1.90;;
295;SDS011;132;48.770;9.200;2023-02-26T17:01:12;2.03;;;1.80;;
295;SDS011;132;48.770;9.200;2023-02-26T17:03:41;3.92;;;1.80;;
295;SDS011;132;48.770;9.200;2023-02-26T17:06:11;2.90;;;2.20;;
295;SDS011;132;48.770;9.200;2023-02-26T17:08:45;2.53;;;1.70;;
295;SDS011;132;48.770;9.200;2023-02-26T17:11:22;2.88;;;2.08;;
295;SDS011;132;48.770;9.200;2023-02-26T17:14:09;4.57;;;2.20;;
295;SDS011;132;48.770;9.200;2023-02-26T17:16:42;3.38;;;2.40;;
295;SDS011;132;48.770;9.200;2023-02-26T17:19:09;2.28;;;2.00;;
295;SDS011;132;48.770;9.200;2023-02-26T17:21:36;2.58;;;2.00;;
295;SDS011;132;48.770;9.200;2023-02-26T17:24:08;8.48;;;1.98;;
295;SDS011;132;48.770;9.200;2023-02-26T17:26:43;2.60;;;1.83;;
295;SDS011;132;48.770;9.200;2023-02-26T17:29:18;7.13;;;2.25;;
295;SDS011;132;48.770;9.200;2023-02-26T17:31:49;2.58;;;2.05;;
295;SDS011;132;48.770;9.200;2023-02-26T17:34:16;2.38;;;2.20;;
295;SDS011;132;48.770;9.200;2023-02-26T17:36:44;4.25;;;2.30;;
295;SDS011;132;48.770;9.200;2023-02-26T17:39:11;3.42;;;2.10;;
295;SDS011;132;48.770;9.200;2023-02-26T17:41:38;4.25;;;2.13;;
295;SDS011;132;48.770;9.200;2023-02-26T17:44:08;2.65;;;2.22;;
295;SDS011;132;48.770;9.200;2023-02-26T17:46:35;8.57;;;2.08;;
295;SDS011;132;48.770;9.200;2023-02-26T17:51:29;7.43;;;2.25;;
295;SDS011;132;48.770;9.200;2023-02-26T17:53:55;2.53;;;1.90;;
295;SDS011;132;48.770;9.200;2023-02-26T17:56:26;3.40;;;2.30;;
295;SDS011;132;48.770;9.200;2023-02-26T17:58:55;2.88;;;2.22;;
295;SDS011;132;48.770;9.200;2023-02-26T18:01:23;3.45;;;1.98;;
295;SDS011;132;48.770;9.200;2023-02-26T18:03:53;4.38;;;2.05;;
295;SDS011;132;48.770;9.200;2023-02-26T18:06:20;2.83;;;2.20;;
295;SDS011;132;48.770;9.200;2023-02-26T18:08:47;6.07;;;2.63;;
295;SDS011;132;48.770;9.200;2023-02-26T18:11:17;4.07;;;2.30;;
295;SDS011;132;48.770;9.200;2023-02-26T18:13:46;5.57;;;2.53;;
295;SDS011;132;48.770;9.200;2023-02-26T18:16:16;6.20;;;2.75;;
295;SDS011;132;48.770;9.200;2023-02-26T18:18:45;2.90;;;2.20;;
295;SDS011;132;48.770;9.200;2023-02-26T18:21:12;6.38;;;2.63;;
295;SDS011;132;48.770;9.200;2023-02-26T18:23:39;4.20;;;2.35;;
295;SDS011;132;48.770;9.200;2023-02-26T18:26:06;5.22;;;2.25;;
295;SDS011;132;48.770;9.200;2023-02-26T18:28:32;5.50;;;2.60;;
295;SDS011;132;48.770;9.200;2023-02-26T18:30:58;4.57;;;2.10;;
295;SDS011;132;48.770;9.200;2023-02-26T18:33:26;3.53;;;2.15;;
295;SDS011;132;48.770;9.200;2023-02-26T18:38:26;3.38;;;2.35;;
295;SDS011;132;48.770;9.200;2023-02-26T18:40:53;3.45;;;2.25;;
295;SDS011;132;48.770;9.200;2023-02-26T18:43:20;7.20;;;3.00;;
295;SDS011;132;48.770;9.200;2023-02-26T18:45:47;4.13;;;2.58;;
295;SDS011;132;48.770;9.200;2023-02-26T18:48:16;3.90;;;2.60;;
295;SDS011;132;48.770;9.200;2023-02-26T18:50:45;2.95;;;2.17;;
295;SDS011;132;48.770;9.200;2023-02-26T18:53:12;3.30;;;2.00;;
295;SDS011;132;48.770;9.200;2023-02-26T18:55:41;4.25;;;2.70;;
295;SDS011;132;48.770;9.200;2023-02-26T18:58:08;4.82;;;2.40;;
295;SDS011;132;48.770;9.200;2023-02-26T19:00:35;4.35;;;2.08;;
295;SDS011;132;48.770;9.200;2023-02-26T19:03:01;6.20;;;3.00;;
295;SDS011;132;48.770;9.200;2023-02-26T19:05:27;6.53;;;2.50;;
295;SDS011;132;48.770;9.200;2023-02-26T19:07:54;5.32;;;2.30;;
295;SDS011;132;48.770;9.200;2023-02-26T19:12:50;8.13;;;2.70;;
295;SDS011;132;48.770;9.200;2023-02-26T19:15:17;4.80;;;3.00;;
295;SDS011;132;48.770;9.200;2023-02-26T19:17:43;3.97;;;2.40;;
295;SDS011;132;48.770;9.200;2023-02-26T19:20:10;3.05;;;2.25;;
295;SDS011;132;48.770;9.200;2023-02-26T19:22:40;3.35;;;2.40;;
295;SDS011;132;48.770;9.200;2023-02-26T19:25:08;4.25;;;2.45;;
295;SDS011;132;48.770;9.200;2023-02-26T19:27:35;4.00;;;2.25;;
295;SDS011;132;48.770;9.200;2023-02-26T19:32:29;3.22;;;2.60;;